Aeroporto :
LOGIN :

Iscrizione | Disclaimer

   EN    FR    IT 

 










Sommario :    VFR   VFR Marginale   IFR   IFR Intensivo   IFR Molto Intensivo
Visibilità : 
Base nubi : 
>= 8 km
>= 3000ft
5 / 8 km
1000 / 3000 ft
1500m / 5 km
500 / 1000 ft
800 / 1500m
200 / 500 ft
< 800m
< 200 ft
Simboli :   Temporali  Nebbia  Neve Forte  Precipitazioni Forti  Vento > 20 kt
SIGMETs :   Varie  Temporali  Ghiacco  Turbolenza  Onda orograficha  Ceneri Vulcaniche






- Altitudine del aeroporto : 154 ft
- Codice IATA : SZZ


EPSC - Szczecin Goleniow

ULTIMO METAR :
  • 250600Z 26006KT 9999 FEW005 BKN009 10/09 Q1023

METARs OBSOLETI :
  • 250530Z 25008KT 9999 -RA FEW001 BKN007 10/09 Q1022
  • 250500Z 27006KT 9999 FEW003 BKN013 OVC016 10/09 Q1022
  • 250430Z 27005KT 9999 FEW008 BKN012 OVC014 10/08 Q1022
  • 250400Z 26005KT 9999 FEW003 BKN014 OVC016 09/08 Q1022
  • 250330Z 26007KT 9999 -RA FEW006 BKN014 BKN017 09/08 Q1022

TAF TAF EPSC
Valido dal 25 a 06 ore il 26 a 06 ore UTC


250530Z 2506/2606 27008KT 9999 SCT030
TEMPO 2506/2509 -SHRA SCT006 BKN014CB
BECMG 2509/2512 34010KT
TEMPO 2509/2514 34015G25KT 4000 SHRA BKN020CB
BECMG 2521/2524 3000 BR BKN005
PROB40
TEMPO 2600/2605 0500 FG BKN002



MetMap, La meteo Aeronautica in un colpo d'occhio ! - Copyright ORBIFLY Dicembre 2007 - Disclaimer

ORBIFLY MET'MAP TEAM :

Programmazione e sviluppo : Alexandra Zaïnal
Concezione : Baudouin d'Aumeries
Aiuto per la programmazione : Marc-Olivier Méhu
Supporto tecnico e logistico : Manuel Goepfert
Aiuto per la traduzione : Arnaldo La Scala

Contatto : metmap@orbifly.com




FONTI E CREDITI :

   NOAA